createdAt,value
2019-03-03T00:00:02.935Z,8.63
2019-03-03T00:01:14.246Z,8.61
2019-03-03T00:02:26.622Z,8.60
2019-03-03T00:03:37.905Z,8.58
2019-03-03T00:04:49.216Z,8.58
2019-03-03T00:06:00.544Z,8.57
2019-03-03T00:07:11.841Z,8.56
2019-03-03T00:08:24.659Z,8.55
2019-03-03T00:09:34.433Z,8.55
2019-03-03T00:10:45.739Z,8.55
2019-03-03T00:11:57.039Z,8.54
2019-03-03T00:13:08.335Z,8.54
2019-03-03T00:14:19.636Z,8.53
2019-03-03T00:15:32.009Z,8.53
2019-03-03T00:16:43.298Z,8.51
2019-03-03T00:17:54.619Z,8.51
2019-03-03T00:19:05.929Z,8.50
2019-03-03T00:20:17.212Z,8.50
2019-03-03T00:21:28.513Z,8.49
2019-03-03T00:22:39.800Z,8.50
2019-03-03T00:23:51.097Z,8.50
2019-03-03T00:25:02.444Z,8.50
2019-03-03T00:26:13.727Z,8.50
2019-03-03T00:27:25.039Z,8.52
2019-03-03T00:28:36.304Z,8.51
2019-03-03T00:29:47.629Z,8.51
2019-03-03T00:30:58.922Z,8.52
2019-03-03T00:32:10.242Z,8.52
2019-03-03T00:33:21.658Z,8.52
2019-03-03T00:34:32.924Z,8.52
2019-03-03T00:35:44.206Z,8.52
2019-03-03T00:36:56.492Z,8.52
2019-03-03T00:38:07.771Z,8.52
2019-03-03T00:39:19.360Z,8.51
2019-03-03T00:40:30.640Z,8.52
2019-03-03T00:41:51.920Z,8.51
2019-03-03T00:43:03.207Z,8.51
2019-03-03T00:44:14.489Z,8.50
2019-03-03T00:45:25.759Z,8.50
2019-03-03T00:46:37.033Z,8.50
2019-03-03T00:47:48.381Z,8.50
2019-03-03T00:48:59.696Z,8.50
2019-03-03T00:50:10.961Z,8.49
2019-03-03T00:51:22.526Z,8.48
2019-03-03T00:52:33.815Z,8.48
2019-03-03T00:53:45.092Z,8.48
2019-03-03T00:54:56.368Z,8.48
2019-03-03T00:56:07.633Z,8.48
2019-03-03T00:57:18.914Z,8.47
2019-03-03T00:58:30.203Z,8.47
2019-03-03T00:59:41.476Z,8.47
2019-03-03T01:00:52.750Z,8.46
2019-03-03T01:02:04.047Z,8.47
2019-03-03T01:03:15.336Z,8.47
2019-03-03T01:04:26.612Z,8.47
2019-03-03T01:05:37.903Z,8.47
2019-03-03T01:06:49.246Z,8.47
2019-03-03T01:08:00.541Z,8.46
2019-03-03T01:09:11.797Z,8.46
2019-03-03T01:10:23.073Z,8.46
2019-03-03T01:11:34.351Z,8.45
2019-03-03T01:12:45.664Z,8.45
2019-03-03T01:13:56.946Z,8.44
2019-03-03T01:15:08.231Z,8.44
2019-03-03T01:16:19.634Z,8.42
2019-03-03T01:17:30.906Z,8.41
2019-03-03T01:18:42.176Z,8.40
2019-03-03T01:19:53.443Z,8.39
2019-03-03T01:21:04.719Z,8.39
2019-03-03T01:22:15.986Z,8.38
2019-03-03T01:23:27.270Z,8.36
2019-03-03T01:24:38.555Z,8.36
2019-03-03T01:25:49.838Z,8.36
2019-03-03T01:27:01.112Z,8.36
2019-03-03T01:28:12.399Z,8.36
2019-03-03T01:29:23.667Z,8.37
2019-03-03T01:30:34.937Z,8.35
2019-03-03T01:31:46.218Z,8.34
2019-03-03T01:32:57.658Z,8.33
2019-03-03T01:34:08.993Z,8.33
2019-03-03T01:35:20.207Z,8.31
2019-03-03T01:36:31.794Z,8.31
2019-03-03T01:37:43.080Z,8.28
2019-03-03T01:38:54.351Z,8.27
2019-03-03T01:40:05.642Z,8.25
2019-03-03T01:41:16.912Z,8.23
2019-03-03T01:42:28.199Z,8.21
2019-03-03T01:43:39.452Z,8.20
2019-03-03T01:44:50.731Z,8.19
2019-03-03T01:46:02.022Z,8.18
2019-03-03T01:47:13.287Z,8.17
2019-03-03T01:48:24.561Z,8.15
2019-03-03T01:49:35.845Z,8.14
2019-03-03T01:50:47.127Z,8.13
2019-03-03T01:51:58.410Z,8.12
2019-03-03T01:53:09.680Z,8.12
2019-03-03T01:54:20.473Z,8.11
2019-03-03T01:55:31.255Z,8.11
2019-03-03T01:56:42.537Z,8.12
2019-03-03T01:57:53.806Z,8.13
2019-03-03T01:59:05.104Z,8.12
2019-03-03T02:00:16.381Z,8.13
2019-03-03T02:01:27.657Z,8.14
2019-03-03T02:02:38.928Z,8.15
2019-03-03T02:03:50.197Z,8.14
2019-03-03T02:05:01.639Z,8.15
2019-03-03T02:06:12.919Z,8.15
2019-03-03T02:07:24.231Z,8.14
2019-03-03T02:08:35.495Z,8.13
2019-03-03T02:09:46.767Z,8.14
2019-03-03T02:10:58.027Z,8.13
2019-03-03T02:12:09.308Z,8.12
2019-03-03T02:13:20.569Z,8.12
2019-03-03T02:14:31.871Z,8.10
2019-03-03T02:15:43.129Z,8.10
2019-03-03T02:16:54.393Z,8.09
2019-03-03T02:18:05.660Z,8.09
2019-03-03T02:19:16.935Z,8.09
2019-03-03T02:20:28.219Z,8.08
2019-03-03T02:21:39.642Z,8.08
2019-03-03T02:22:50.911Z,8.08
2019-03-03T02:24:02.176Z,8.07
2019-03-03T02:25:13.456Z,8.08
2019-03-03T02:26:24.716Z,8.08
2019-03-03T02:27:36.005Z,8.07
2019-03-03T02:28:47.297Z,8.07
2019-03-03T02:29:58.554Z,8.08
2019-03-03T02:31:09.854Z,8.08
2019-03-03T02:32:21.118Z,8.08
2019-03-03T02:33:32.384Z,8.08
2019-03-03T02:34:43.653Z,8.09
2019-03-03T02:35:54.912Z,8.09
2019-03-03T02:37:06.193Z,8.08
2019-03-03T02:38:17.447Z,8.09
2019-03-03T02:39:28.745Z,8.09
2019-03-03T02:40:40.017Z,8.11
2019-03-03T02:41:51.369Z,8.12
2019-03-03T02:43:02.553Z,8.11
2019-03-03T02:44:13.832Z,8.11
2019-03-03T02:45:25.106Z,8.13
2019-03-03T02:46:36.391Z,8.13
2019-03-03T02:47:47.660Z,8.14
2019-03-03T02:48:58.927Z,8.14
2019-03-03T02:50:10.193Z,8.15
2019-03-03T02:51:21.469Z,8.15
2019-03-03T02:52:32.745Z,8.15
2019-03-03T02:53:44.040Z,8.16
2019-03-03T02:54:55.353Z,8.16
2019-03-03T02:56:06.616Z,8.16
2019-03-03T02:57:32.835Z,8.16
2019-03-03T02:58:44.126Z,8.16
2019-03-03T02:59:55.409Z,8.16
2019-03-03T03:01:06.685Z,8.17
2019-03-03T03:02:17.955Z,8.16
2019-03-03T03:03:29.215Z,8.16
2019-03-03T03:04:40.647Z,8.17
2019-03-03T03:05:51.933Z,8.16
2019-03-03T03:07:03.196Z,8.16
2019-03-03T03:08:15.465Z,8.15
2019-03-03T03:09:26.731Z,8.15
2019-03-03T03:10:38.013Z,8.14
2019-03-03T03:11:49.279Z,8.15
2019-03-03T03:13:00.629Z,8.13
2019-03-03T03:14:11.882Z,8.13
2019-03-03T03:15:23.157Z,8.12
2019-03-03T03:16:34.423Z,8.11
2019-03-03T03:17:45.688Z,8.10
2019-03-03T03:18:56.982Z,8.10
2019-03-03T03:20:08.242Z,8.09
2019-03-03T03:21:19.521Z,8.10
2019-03-03T03:22:30.816Z,8.08
2019-03-03T03:23:42.075Z,8.09
2019-03-03T03:24:53.332Z,8.09
2019-03-03T03:26:04.632Z,8.09
2019-03-03T03:27:15.914Z,8.10
2019-03-03T03:28:26.704Z,8.09
2019-03-03T03:29:38.000Z,8.10
2019-03-03T03:30:49.270Z,8.10
2019-03-03T03:32:00.642Z,8.11
2019-03-03T03:33:11.929Z,8.12
2019-03-03T03:34:23.192Z,8.12
2019-03-03T03:35:34.805Z,8.12
2019-03-03T03:36:46.041Z,8.13
2019-03-03T03:37:57.308Z,8.13
2019-03-03T03:39:08.633Z,8.14
2019-03-03T03:40:19.882Z,8.15
2019-03-03T03:41:31.168Z,8.15
2019-03-03T03:42:42.451Z,8.16
2019-03-03T03:43:53.722Z,8.16
2019-03-03T03:45:05.015Z,8.16
2019-03-03T03:46:16.284Z,8.17
2019-03-03T03:47:28.725Z,8.17
2019-03-03T03:48:39.921Z,8.18
2019-03-03T03:49:51.185Z,8.18
2019-03-03T03:51:02.450Z,8.18
2019-03-03T03:52:13.729Z,8.19
2019-03-03T03:53:24.999Z,8.20
2019-03-03T03:54:36.259Z,8.19
2019-03-03T03:55:47.530Z,8.20
2019-03-03T03:56:58.796Z,8.21
2019-03-03T03:58:10.063Z,8.21
2019-03-03T03:59:21.331Z,8.22
2019-03-03T04:00:32.623Z,8.22
2019-03-03T04:01:43.882Z,8.22
2019-03-03T04:02:55.164Z,8.23
2019-03-03T04:04:06.446Z,8.23
2019-03-03T04:05:17.721Z,8.22
2019-03-03T04:06:29.027Z,8.22
2019-03-03T04:07:40.288Z,8.20
2019-03-03T04:08:51.555Z,8.19
2019-03-03T04:10:02.822Z,8.18
2019-03-03T04:11:14.095Z,8.17
2019-03-03T04:12:25.369Z,8.16
2019-03-03T04:13:36.640Z,8.13
2019-03-03T04:14:47.901Z,8.13
2019-03-03T04:15:59.176Z,8.12
2019-03-03T04:17:10.442Z,8.11
2019-03-03T04:18:21.721Z,8.10
2019-03-03T04:19:33.013Z,8.10
2019-03-03T04:20:44.273Z,8.09
2019-03-03T04:21:55.543Z,8.10
2019-03-03T04:23:06.826Z,8.10
2019-03-03T04:24:18.094Z,8.10
2019-03-03T04:25:29.169Z,8.11
2019-03-03T04:26:40.465Z,8.11
2019-03-03T04:27:51.723Z,8.11
2019-03-03T04:29:04.001Z,8.12
2019-03-03T04:30:15.274Z,8.12
2019-03-03T04:31:26.621Z,8.13
2019-03-03T04:32:38.458Z,8.14
2019-03-03T04:33:49.719Z,8.14
2019-03-03T04:35:00.988Z,8.15
2019-03-03T04:36:12.273Z,8.15
2019-03-03T04:37:23.536Z,8.15
2019-03-03T04:38:34.807Z,8.16
2019-03-03T04:39:46.080Z,8.15
2019-03-03T04:40:57.356Z,8.17
2019-03-03T04:42:08.654Z,8.16
2019-03-03T04:43:19.942Z,8.17
2019-03-03T04:44:31.202Z,8.18
2019-03-03T04:45:42.626Z,8.19
2019-03-03T04:46:53.923Z,8.19
2019-03-03T04:48:05.220Z,8.20
2019-03-03T04:49:16.623Z,8.21
2019-03-03T04:50:28.937Z,8.20
2019-03-03T04:51:40.192Z,8.21
2019-03-03T04:52:51.468Z,8.22
2019-03-03T04:54:02.732Z,8.23
2019-03-03T04:55:15.003Z,8.24
2019-03-03T04:56:26.260Z,8.24
2019-03-03T04:57:38.534Z,8.25
2019-03-03T04:58:49.809Z,8.25
2019-03-03T05:00:01.072Z,8.26
2019-03-03T05:01:12.343Z,8.27
2019-03-03T05:02:23.607Z,8.28
2019-03-03T05:03:34.883Z,8.28
2019-03-03T05:04:46.148Z,8.30
2019-03-03T05:05:57.412Z,8.31
2019-03-03T05:07:08.691Z,8.30
2019-03-03T05:08:19.962Z,8.32
2019-03-03T05:09:31.233Z,8.32
2019-03-03T05:10:42.626Z,8.32
2019-03-03T05:11:53.891Z,8.33
2019-03-03T05:13:05.173Z,8.34
2019-03-03T05:14:16.447Z,8.35
2019-03-03T05:15:27.695Z,8.36
2019-03-03T05:16:38.946Z,8.36
2019-03-03T05:17:50.217Z,8.36
2019-03-03T05:19:01.478Z,8.37
2019-03-03T05:20:12.742Z,8.38
2019-03-03T05:21:24.018Z,8.39
2019-03-03T05:22:34.787Z,8.39
2019-03-03T05:23:46.061Z,8.40
2019-03-03T05:24:57.629Z,8.40
2019-03-03T05:26:08.886Z,8.41
2019-03-03T05:27:20.163Z,8.41
2019-03-03T05:28:31.439Z,8.42
2019-03-03T05:29:42.715Z,8.43
2019-03-03T05:30:53.984Z,8.43
2019-03-03T05:32:05.253Z,8.43
2019-03-03T05:33:16.625Z,8.43
2019-03-03T05:34:27.899Z,8.43
2019-03-03T05:35:39.174Z,8.44
2019-03-03T05:36:50.442Z,8.43
2019-03-03T05:38:02.690Z,8.44
2019-03-03T05:39:13.955Z,8.44
2019-03-03T05:40:25.213Z,8.43
2019-03-03T05:41:36.478Z,8.43
2019-03-03T05:42:47.749Z,8.42
2019-03-03T05:43:59.013Z,8.43
2019-03-03T05:45:10.280Z,8.43
2019-03-03T05:46:21.547Z,8.41
2019-03-03T05:47:32.814Z,8.42
2019-03-03T05:48:44.080Z,8.41
2019-03-03T05:49:55.360Z,8.41
2019-03-03T05:51:06.633Z,8.41
2019-03-03T05:52:17.901Z,8.40
2019-03-03T05:53:28.670Z,8.41
2019-03-03T05:54:39.963Z,8.41
2019-03-03T05:55:51.227Z,8.42
2019-03-03T05:57:02.616Z,8.42
2019-03-03T05:58:13.874Z,8.42
2019-03-03T05:59:25.146Z,8.42
2019-03-03T06:00:36.409Z,8.43
2019-03-03T06:01:47.692Z,8.43
2019-03-03T06:02:58.937Z,8.44
2019-03-03T06:04:10.223Z,8.45
2019-03-03T06:05:21.482Z,8.45
2019-03-03T06:06:32.767Z,8.46
2019-03-03T06:07:44.046Z,8.46
2019-03-03T06:08:55.297Z,8.46
2019-03-03T06:10:06.627Z,8.47
2019-03-03T06:11:17.887Z,8.47
2019-03-03T06:12:29.149Z,8.47
2019-03-03T06:13:40.411Z,8.48
2019-03-03T06:14:51.688Z,8.48
2019-03-03T06:16:02.951Z,8.48
2019-03-03T06:17:14.220Z,8.49
2019-03-03T06:18:25.487Z,8.49
2019-03-03T06:19:36.753Z,8.50
2019-03-03T06:20:48.023Z,8.50
2019-03-03T06:21:59.291Z,8.51
2019-03-03T06:23:10.622Z,8.52
2019-03-03T06:24:21.888Z,8.50
2019-03-03T06:25:33.168Z,8.51
2019-03-03T06:26:44.446Z,8.51
2019-03-03T06:27:55.718Z,8.52
2019-03-03T06:29:06.983Z,8.52
2019-03-03T06:30:18.259Z,8.53
2019-03-03T06:31:29.531Z,8.53
2019-03-03T06:32:40.804Z,8.53
2019-03-03T06:33:52.080Z,8.54
2019-03-03T06:35:03.353Z,8.56
2019-03-03T06:36:14.628Z,8.56
2019-03-03T06:37:25.899Z,8.57
2019-03-03T06:38:37.173Z,8.57
2019-03-03T06:39:48.458Z,8.58
2019-03-03T06:40:59.725Z,8.58
2019-03-03T06:42:10.989Z,8.59
2019-03-03T06:43:22.279Z,8.61
2019-03-03T06:44:33.553Z,8.63
2019-03-03T06:45:44.837Z,8.68
2019-03-03T06:46:56.114Z,8.71
2019-03-03T06:48:07.379Z,8.73
2019-03-03T06:49:18.650Z,8.76
2019-03-03T06:50:29.941Z,8.78
2019-03-03T06:51:41.221Z,8.79
2019-03-03T06:52:52.627Z,8.81
2019-03-03T06:54:03.901Z,8.81
2019-03-03T06:55:15.174Z,8.84
2019-03-03T06:56:26.611Z,8.85
2019-03-03T06:57:37.901Z,8.87
2019-03-03T06:58:49.163Z,8.87
2019-03-03T07:00:00.437Z,8.89
2019-03-03T07:01:11.720Z,8.89
2019-03-03T07:02:22.988Z,8.91
2019-03-03T07:03:34.253Z,8.92
2019-03-03T07:04:45.535Z,8.93
2019-03-03T07:05:56.812Z,8.96
2019-03-03T07:07:08.100Z,8.97
2019-03-03T07:08:19.389Z,8.98
2019-03-03T07:09:30.653Z,8.98
2019-03-03T07:10:41.925Z,8.99
2019-03-03T07:11:53.195Z,9.00
2019-03-03T07:13:04.627Z,9.00
2019-03-03T07:14:15.906Z,8.99
2019-03-03T07:15:27.191Z,8.98
2019-03-03T07:16:38.474Z,8.97
2019-03-03T07:17:49.743Z,8.96
2019-03-03T07:19:01.009Z,8.95
2019-03-03T07:20:12.301Z,8.96
2019-03-03T07:21:23.575Z,8.95
2019-03-03T07:22:34.356Z,8.95
2019-03-03T07:23:45.644Z,8.96
2019-03-03T07:24:56.934Z,8.97
2019-03-03T07:26:08.211Z,8.98
2019-03-03T07:27:19.509Z,9.00
2019-03-03T07:28:30.790Z,9.03
2019-03-03T07:29:42.060Z,9.06
2019-03-03T07:30:53.338Z,9.08
2019-03-03T07:32:04.615Z,9.13
2019-03-03T07:33:15.898Z,9.15
2019-03-03T07:34:27.182Z,9.18
2019-03-03T07:35:38.474Z,9.22
2019-03-03T07:36:49.800Z,9.25
2019-03-03T07:38:01.085Z,9.28
2019-03-03T07:39:12.359Z,9.32
2019-03-03T07:40:23.631Z,9.37
2019-03-03T07:41:34.905Z,9.43
2019-03-03T07:42:46.208Z,9.47
2019-03-03T07:43:57.493Z,9.50
2019-03-03T07:45:08.790Z,9.53
2019-03-03T07:46:20.080Z,9.56
2019-03-03T07:47:31.408Z,9.58
2019-03-03T07:48:42.684Z,9.59
2019-03-03T07:49:54.014Z,9.63
2019-03-03T07:51:04.754Z,9.65
2019-03-03T07:52:16.038Z,9.66
2019-03-03T07:53:27.328Z,9.68
2019-03-03T07:54:38.619Z,9.70
2019-03-03T07:55:49.929Z,9.75
2019-03-03T07:57:01.236Z,9.80
2019-03-03T07:58:12.638Z,9.85
2019-03-03T07:59:23.932Z,9.88
2019-03-03T08:00:35.215Z,9.88
2019-03-03T08:01:46.643Z,9.88
2019-03-03T08:02:57.950Z,9.87
2019-03-03T08:04:09.236Z,9.83
2019-03-03T08:05:20.030Z,9.78
2019-03-03T08:06:31.394Z,9.74
2019-03-03T08:07:42.699Z,9.73
2019-03-03T08:08:54.002Z,9.74
2019-03-03T08:10:05.456Z,9.72
2019-03-03T08:11:16.761Z,9.71
2019-03-03T08:12:28.065Z,9.70
2019-03-03T08:13:39.362Z,9.69
2019-03-03T08:14:50.655Z,9.67
2019-03-03T08:16:01.944Z,9.65
2019-03-03T08:17:13.243Z,9.66
2019-03-03T08:18:24.617Z,9.67
2019-03-03T08:19:35.927Z,9.67
2019-03-03T08:20:47.236Z,9.67
2019-03-03T08:21:58.617Z,9.68
2019-03-03T08:23:09.910Z,9.68
2019-03-03T08:24:21.207Z,9.69
2019-03-03T08:25:32.626Z,9.71
2019-03-03T08:26:43.904Z,9.72
2019-03-03T08:27:55.205Z,9.72
2019-03-03T08:29:06.623Z,9.73
2019-03-03T08:30:17.916Z,9.73
2019-03-03T08:31:29.203Z,9.72
2019-03-03T08:32:40.518Z,9.71
2019-03-03T08:33:51.817Z,9.72
2019-03-03T08:35:03.104Z,9.72
2019-03-03T08:36:14.410Z,9.70
2019-03-03T08:37:25.709Z,9.70
2019-03-03T08:38:37.003Z,9.68
2019-03-03T08:39:48.314Z,9.69
2019-03-03T08:40:59.602Z,9.69
2019-03-03T08:42:10.894Z,9.71
2019-03-03T08:43:21.694Z,9.73
2019-03-03T08:44:32.995Z,9.75
2019-03-03T08:45:44.295Z,9.79
2019-03-03T08:46:55.582Z,9.84
2019-03-03T08:48:06.867Z,9.89
2019-03-03T08:49:17.675Z,9.99
2019-03-03T08:50:28.977Z,10.07
2019-03-03T08:51:40.265Z,10.14
2019-03-03T08:52:51.562Z,10.19
2019-03-03T08:54:02.854Z,10.24
2019-03-03T08:55:14.166Z,10.28
2019-03-03T08:56:25.458Z,10.33
2019-03-03T08:57:36.762Z,10.37
2019-03-03T08:58:48.055Z,10.42
2019-03-03T09:00:00.357Z,10.46
2019-03-03T09:01:11.665Z,10.55
2019-03-03T09:02:22.959Z,10.69
2019-03-03T09:03:34.266Z,10.74
2019-03-03T09:04:45.570Z,10.82
2019-03-03T09:05:56.887Z,10.91
2019-03-03T09:07:07.698Z,10.97
2019-03-03T09:08:19.013Z,10.99
2019-03-03T09:09:30.334Z,10.96
2019-03-03T09:10:42.164Z,10.98
2019-03-03T09:11:53.491Z,11.00
2019-03-03T09:13:04.814Z,10.96
2019-03-03T09:14:16.145Z,10.93
2019-03-03T09:15:27.457Z,10.96
2019-03-03T09:16:38.775Z,10.95
2019-03-03T09:17:50.096Z,10.96
2019-03-03T09:19:01.408Z,10.97
2019-03-03T09:20:13.995Z,10.98
2019-03-03T09:21:26.308Z,11.01
2019-03-03T09:22:37.625Z,11.02
2019-03-03T09:23:48.941Z,11.01
2019-03-03T09:25:00.354Z,10.99
2019-03-03T09:26:11.859Z,10.95
2019-03-03T09:27:23.183Z,10.91
2019-03-03T09:28:34.621Z,10.84
2019-03-03T09:29:45.940Z,10.78
2019-03-03T09:30:57.255Z,10.72
2019-03-03T09:32:08.628Z,10.68
2019-03-03T09:33:19.943Z,10.62
2019-03-03T09:34:31.258Z,10.58
2019-03-03T09:35:42.625Z,10.53
2019-03-03T09:36:53.933Z,10.51
2019-03-03T09:38:05.244Z,10.50
2019-03-03T09:39:16.622Z,10.48
2019-03-03T09:40:27.928Z,10.46
2019-03-03T09:41:39.237Z,10.44
2019-03-03T09:42:50.628Z,10.42
2019-03-03T09:44:01.943Z,10.40
2019-03-03T09:45:13.244Z,10.37
2019-03-03T09:46:24.640Z,10.34
2019-03-03T09:47:35.950Z,10.33
2019-03-03T09:48:47.263Z,10.32
2019-03-03T09:49:58.643Z,10.34
2019-03-03T09:51:10.973Z,10.37
2019-03-03T09:52:22.280Z,10.39
2019-03-03T09:53:33.607Z,10.40
2019-03-03T09:54:44.922Z,10.40
2019-03-03T09:55:56.225Z,10.40
2019-03-03T09:57:07.540Z,10.41
2019-03-03T09:58:18.847Z,10.42
2019-03-03T09:59:30.145Z,10.43
2019-03-03T10:00:41.456Z,10.44
2019-03-03T10:01:52.767Z,10.45
2019-03-03T10:03:04.075Z,10.48
2019-03-03T10:04:15.387Z,10.49
2019-03-03T10:05:26.212Z,10.51
2019-03-03T10:06:37.856Z,10.52
2019-03-03T10:07:49.224Z,10.52
2019-03-03T10:09:00.622Z,10.51
2019-03-03T10:10:11.935Z,10.50
2019-03-03T10:11:23.241Z,10.46
2019-03-03T10:12:34.626Z,10.44
2019-03-03T10:13:45.948Z,10.42
2019-03-03T10:14:57.252Z,10.40
2019-03-03T10:16:08.651Z,10.39
2019-03-03T10:17:19.931Z,10.35
2019-03-03T10:18:31.241Z,10.31
2019-03-03T10:19:42.623Z,10.28
2019-03-03T10:20:53.932Z,10.25
2019-03-03T10:22:05.234Z,10.23
2019-03-03T10:23:16.631Z,10.22
2019-03-03T10:24:27.929Z,10.22
2019-03-03T10:25:39.222Z,10.21
2019-03-03T10:26:50.637Z,10.21
2019-03-03T10:28:01.949Z,10.19
2019-03-03T10:29:13.249Z,10.18
2019-03-03T10:30:24.623Z,10.17
2019-03-03T10:31:36.400Z,10.17
2019-03-03T10:32:47.708Z,10.18
2019-03-03T10:33:59.034Z,10.18
2019-03-03T10:35:10.343Z,10.19
2019-03-03T10:36:21.650Z,10.21
2019-03-03T10:37:32.965Z,10.23
2019-03-03T10:38:44.285Z,10.25
2019-03-03T10:39:55.593Z,10.27
2019-03-03T10:41:06.898Z,10.29
2019-03-03T10:42:18.821Z,10.29
2019-03-03T10:43:31.123Z,10.30
2019-03-03T10:44:41.933Z,10.31
2019-03-03T10:45:53.238Z,10.33
2019-03-03T10:47:04.658Z,10.33
2019-03-03T10:48:15.974Z,10.35
2019-03-03T10:49:27.305Z,10.37
2019-03-03T10:50:38.644Z,10.38
2019-03-03T10:51:49.993Z,10.39
2019-03-03T10:53:02.340Z,10.39
2019-03-03T10:54:13.636Z,10.40
2019-03-03T10:55:24.948Z,10.42
2019-03-03T10:56:35.754Z,10.46
2019-03-03T10:57:47.105Z,10.51
2019-03-03T10:58:58.404Z,10.54
2019-03-03T11:00:09.723Z,10.56
2019-03-03T11:01:21.026Z,10.56
2019-03-03T11:02:32.635Z,10.58
2019-03-03T11:03:43.954Z,10.58
2019-03-03T11:04:55.272Z,10.59
2019-03-03T11:06:06.627Z,10.59
2019-03-03T11:07:17.935Z,10.59
2019-03-03T11:08:30.248Z,10.60
2019-03-03T11:09:41.562Z,10.59
2019-03-03T11:10:57.633Z,10.56
2019-03-03T11:12:04.176Z,10.57
2019-03-03T11:13:15.493Z,10.57
2019-03-03T11:14:26.829Z,10.60
2019-03-03T11:15:38.139Z,10.61
2019-03-03T11:16:49.916Z,10.62
2019-03-03T11:18:01.247Z,10.64
2019-03-03T11:19:12.626Z,10.64
2019-03-03T11:20:24.929Z,10.66
2019-03-03T11:21:37.233Z,10.69
2019-03-03T11:22:48.672Z,10.71
2019-03-03T11:23:59.996Z,10.72
2019-03-03T11:25:11.303Z,10.74
2019-03-03T11:26:23.630Z,10.78
2019-03-03T11:27:34.949Z,10.80
2019-03-03T11:28:46.295Z,10.83
2019-03-03T11:29:57.612Z,10.84
2019-03-03T11:31:08.923Z,10.88
2019-03-03T11:32:20.245Z,10.92
2019-03-03T11:33:31.607Z,10.96
2019-03-03T11:34:42.935Z,10.99
2019-03-03T11:35:54.262Z,11.02
2019-03-03T11:37:05.578Z,11.04
2019-03-03T11:38:16.904Z,11.04
2019-03-03T11:39:28.234Z,11.04
2019-03-03T11:40:39.544Z,11.04
2019-03-03T11:41:50.851Z,11.02
2019-03-03T11:43:02.178Z,11.01
2019-03-03T11:44:13.525Z,11.00
2019-03-03T11:45:24.845Z,10.99
2019-03-03T11:46:37.158Z,10.98
2019-03-03T11:47:48.933Z,10.98
2019-03-03T11:49:00.274Z,10.99
2019-03-03T11:50:11.623Z,11.00
2019-03-03T11:51:23.023Z,10.97
2019-03-03T11:52:34.341Z,10.95
2019-03-03T11:53:45.163Z,10.93
2019-03-03T11:54:56.643Z,10.93
2019-03-03T11:56:07.949Z,10.92
2019-03-03T11:57:19.270Z,10.93
2019-03-03T11:58:30.634Z,10.94
2019-03-03T11:59:41.936Z,10.96
2019-03-03T12:00:53.277Z,10.97
2019-03-03T12:02:04.600Z,10.97
2019-03-03T12:03:15.919Z,10.98
2019-03-03T12:04:27.250Z,11.00
2019-03-03T12:05:38.567Z,11.01
2019-03-03T12:06:49.913Z,11.02
2019-03-03T12:08:01.239Z,11.02
2019-03-03T12:09:12.635Z,11.05
2019-03-03T12:10:23.952Z,11.07
2019-03-03T12:11:35.263Z,11.12
2019-03-03T12:12:46.619Z,11.16
2019-03-03T12:13:57.930Z,11.20
2019-03-03T12:15:09.256Z,11.26
2019-03-03T12:16:20.626Z,11.30
2019-03-03T12:17:31.947Z,11.32
2019-03-03T12:18:43.285Z,11.34
2019-03-03T12:19:54.627Z,11.33
2019-03-03T12:21:05.952Z,11.35
2019-03-03T12:22:17.316Z,11.34
2019-03-03T12:23:28.640Z,11.38
2019-03-03T12:24:39.966Z,11.45
2019-03-03T12:25:51.303Z,11.48
2019-03-03T12:27:02.640Z,11.53
2019-03-03T12:28:13.975Z,11.56
2019-03-03T12:29:25.307Z,11.58
2019-03-03T12:30:36.634Z,11.57
2019-03-03T12:31:47.965Z,11.56
2019-03-03T12:32:59.441Z,11.53
2019-03-03T12:34:10.735Z,11.51
2019-03-03T12:35:22.077Z,11.50
2019-03-03T12:36:33.407Z,11.51
2019-03-03T12:37:44.743Z,11.57
2019-03-03T12:38:56.072Z,11.60
2019-03-03T12:40:07.506Z,11.63
2019-03-03T12:41:18.844Z,11.66
2019-03-03T12:42:31.137Z,11.71
2019-03-03T12:43:42.629Z,11.74
2019-03-03T12:44:53.983Z,11.76
2019-03-03T12:46:04.824Z,11.75
2019-03-03T12:47:16.177Z,11.75
2019-03-03T12:48:27.519Z,11.74
2019-03-03T12:49:38.859Z,11.73
2019-03-03T12:50:50.201Z,11.72
2019-03-03T12:53:23.553Z,11.72
2019-03-03T12:54:34.891Z,11.69
2019-03-03T12:55:46.254Z,11.67
2019-03-03T12:56:57.593Z,11.67
2019-03-03T12:59:22.992Z,11.72
2019-03-03T13:00:34.332Z,11.77
2019-03-03T13:01:45.980Z,11.83
2019-03-03T13:02:57.332Z,11.91
2019-03-03T13:04:08.673Z,11.97
2019-03-03T13:05:19.518Z,12.03
2019-03-03T13:06:30.855Z,12.14
2019-03-03T13:07:42.204Z,12.22
2019-03-03T13:08:59.516Z,12.27
2019-03-03T13:10:04.886Z,12.29
2019-03-03T13:11:16.305Z,12.25
2019-03-03T13:12:27.658Z,12.19
2019-03-03T13:13:38.551Z,12.13
2019-03-03T13:14:49.960Z,12.09
2019-03-03T13:16:01.299Z,12.06
2019-03-03T13:17:12.660Z,12.08
2019-03-03T13:18:24.000Z,12.12
2019-03-03T13:19:41.301Z,12.19
2019-03-03T13:20:52.628Z,12.25
2019-03-03T13:22:04.330Z,12.32
2019-03-03T13:23:16.709Z,12.41
2019-03-03T13:24:28.071Z,12.47
2019-03-03T13:25:39.410Z,12.47
2019-03-03T13:28:02.186Z,12.45
2019-03-03T13:29:13.554Z,12.44
2019-03-03T13:30:24.920Z,12.45
2019-03-03T13:31:36.270Z,12.44
2019-03-03T13:33:02.105Z,12.44
2019-03-03T13:34:13.448Z,12.46
2019-03-03T13:35:25.108Z,12.47
2019-03-03T13:36:36.671Z,12.49
2019-03-03T13:37:48.013Z,12.49
2019-03-03T13:38:59.364Z,12.47
2019-03-03T13:40:10.724Z,12.42
2019-03-03T13:41:22.075Z,12.37
2019-03-03T13:42:33.432Z,12.38
2019-03-03T13:43:44.788Z,12.42
2019-03-03T13:44:56.149Z,12.50
2019-03-03T13:46:07.495Z,12.59
2019-03-03T13:47:18.844Z,12.63
2019-03-03T13:48:30.201Z,12.63
2019-03-03T13:49:41.560Z,12.62
2019-03-03T13:50:52.936Z,12.58
2019-03-03T13:52:04.306Z,12.53
2019-03-03T13:53:15.178Z,12.47
2019-03-03T13:54:26.704Z,12.41
2019-03-03T13:55:38.070Z,12.34
2019-03-03T13:56:49.434Z,12.27
2019-03-03T13:58:00.297Z,12.23
2019-03-03T13:59:11.642Z,12.23
2019-03-03T14:00:22.987Z,12.20
2019-03-03T14:01:34.330Z,12.16
2019-03-03T14:02:45.187Z,12.12
2019-03-03T14:03:56.635Z,12.05
2019-03-03T14:05:07.983Z,11.94
2019-03-03T14:06:19.345Z,11.85
2019-03-03T14:07:32.122Z,11.78
2019-03-03T14:08:42.082Z,11.72
2019-03-03T14:09:53.382Z,11.67
2019-03-03T14:11:04.732Z,11.62
2019-03-03T14:13:29.573Z,11.47
2019-03-03T14:14:40.934Z,11.38
2019-03-03T14:15:52.275Z,11.31
2019-03-03T14:17:03.638Z,11.26
2019-03-03T14:18:15.000Z,11.23
2019-03-03T14:21:49.146Z,11.21
2019-03-03T14:23:00.642Z,11.22
2019-03-03T14:24:12.466Z,11.25
2019-03-03T14:25:23.811Z,11.27
2019-03-03T14:26:35.610Z,11.32
2019-03-03T14:27:46.992Z,11.35
2019-03-03T14:28:58.302Z,11.38
2019-03-03T14:30:09.646Z,11.43
2019-03-03T14:31:23.113Z,11.48
2019-03-03T14:32:35.304Z,11.55
2019-03-03T14:33:46.724Z,11.62
2019-03-03T14:34:58.542Z,11.71
2019-03-03T14:36:31.494Z,11.78
2019-03-03T14:37:42.880Z,11.90
2019-03-03T14:38:54.277Z,12.00
2019-03-03T14:41:34.777Z,12.12
2019-03-03T14:42:46.125Z,12.10
2019-03-03T14:43:57.550Z,12.08
2019-03-03T14:45:08.990Z,12.07
2019-03-03T14:46:23.231Z,12.05
2019-03-03T14:47:35.608Z,12.01
2019-03-03T14:48:46.957Z,11.96
2019-03-03T14:51:09.724Z,11.91
2019-03-03T14:52:27.848Z,11.92
2019-03-03T14:53:38.739Z,11.93
2019-03-03T14:54:50.097Z,11.90
2019-03-03T14:56:02.277Z,11.90
2019-03-03T14:57:13.644Z,11.90
2019-03-03T14:58:25.364Z,11.88
2019-03-03T14:59:36.723Z,11.96
2019-03-03T15:00:48.095Z,12.01
2019-03-03T15:01:59.897Z,12.02
2019-03-03T15:03:11.264Z,11.99
2019-03-03T15:04:22.143Z,11.97
2019-03-03T15:05:33.486Z,11.95
2019-03-03T15:06:44.840Z,11.91
2019-03-03T15:07:56.636Z,11.87
2019-03-03T15:09:07.513Z,11.86
2019-03-03T15:10:18.853Z,11.87
2019-03-03T15:11:30.191Z,11.87
2019-03-03T15:12:41.540Z,11.84
2019-03-03T15:13:52.893Z,11.82
2019-03-03T15:15:04.225Z,11.80
2019-03-03T15:16:15.073Z,11.79
2019-03-03T15:17:26.423Z,11.78
2019-03-03T15:18:37.266Z,11.77
2019-03-03T15:19:48.111Z,11.76
2019-03-03T15:20:58.943Z,11.72
2019-03-03T15:22:10.293Z,11.67
2019-03-03T15:23:21.629Z,11.62
2019-03-03T15:24:32.978Z,11.57
2019-03-03T15:25:44.313Z,11.51
2019-03-03T15:26:55.148Z,11.45
2019-03-03T15:28:06.626Z,11.39
2019-03-03T15:29:17.471Z,11.33
2019-03-03T15:30:28.320Z,11.29
2019-03-03T15:31:39.678Z,11.24
2019-03-03T15:32:50.506Z,11.19
2019-03-03T15:34:01.834Z,11.16
2019-03-03T15:35:13.173Z,11.13
2019-03-03T15:36:24.634Z,11.09
2019-03-03T15:37:35.972Z,11.08
2019-03-03T15:38:47.296Z,11.07
2019-03-03T15:39:58.652Z,11.06
2019-03-03T15:41:10.002Z,11.06
2019-03-03T15:42:21.320Z,11.07
2019-03-03T15:43:32.228Z,11.07
2019-03-03T15:44:43.550Z,11.05
2019-03-03T15:45:54.895Z,11.02
2019-03-03T15:47:06.234Z,11.00